createdAt,value
2018-05-19T00:00:02.693Z,0.00
2018-05-19T00:01:02.716Z,0.00
2018-05-19T00:02:02.740Z,0.00
2018-05-19T00:03:02.858Z,0.00
2018-05-19T00:04:02.770Z,0.00
2018-05-19T00:05:02.778Z,0.00
2018-05-19T00:06:02.807Z,0.00
2018-05-19T00:07:02.822Z,0.00
2018-05-19T00:08:02.925Z,0.00
2018-05-19T00:09:02.855Z,0.00
2018-05-19T00:10:02.864Z,0.00
2018-05-19T00:11:02.887Z,0.00
2018-05-19T00:12:02.896Z,0.00
2018-05-19T00:13:03.015Z,0.00
2018-05-19T00:14:03.059Z,0.00
2018-05-19T00:15:03.076Z,0.00
2018-05-19T00:16:02.970Z,0.00
2018-05-19T00:17:02.979Z,0.00
2018-05-19T00:18:03.089Z,0.00
2018-05-19T00:19:03.139Z,0.00
2018-05-19T00:20:03.112Z,0.00
2018-05-19T00:21:03.045Z,0.00
2018-05-19T00:22:03.058Z,0.00
2018-05-19T00:23:03.175Z,0.00
2018-05-19T00:24:03.115Z,0.00
2018-05-19T00:25:03.239Z,0.00
2018-05-19T00:26:03.258Z,0.00
2018-05-19T00:27:03.154Z,0.00
2018-05-19T00:28:03.165Z,0.00
2018-05-19T00:29:03.292Z,0.00
2018-05-19T00:30:03.324Z,0.00
2018-05-19T00:31:03.219Z,0.00
2018-05-19T00:32:03.237Z,0.00
2018-05-19T00:33:03.248Z,0.00
2018-05-19T00:34:03.379Z,0.00
2018-05-19T00:35:03.405Z,0.00
2018-05-19T00:36:03.308Z,0.00
2018-05-19T00:37:03.325Z,0.00
2018-05-19T00:38:03.325Z,0.00
2018-05-19T00:39:03.472Z,0.00
2018-05-19T00:40:03.513Z,0.00
2018-05-19T00:41:03.504Z,0.00
2018-05-19T00:42:03.522Z,0.00
2018-05-19T00:43:03.539Z,0.00
2018-05-19T00:44:03.427Z,0.00
2018-05-19T00:45:03.560Z,0.00
2018-05-19T00:46:03.586Z,0.00
2018-05-19T00:47:03.486Z,0.00
2018-05-19T00:48:03.623Z,0.00
2018-05-19T00:49:03.524Z,0.00
2018-05-19T00:50:03.752Z,0.00
2018-05-19T00:51:03.561Z,0.00
2018-05-19T00:52:03.554Z,0.00
2018-05-19T00:53:03.573Z,0.00
2018-05-19T00:54:03.602Z,0.00
2018-05-19T00:55:03.713Z,0.00
2018-05-19T00:56:03.635Z,0.00
2018-05-19T00:57:03.648Z,0.00
2018-05-19T00:58:03.661Z,0.00
2018-05-19T00:59:03.681Z,0.00
2018-05-19T01:00:03.789Z,0.00
2018-05-19T01:01:03.718Z,0.00
2018-05-19T01:02:03.731Z,0.00
2018-05-19T01:03:03.742Z,0.00
2018-05-19T01:04:03.752Z,0.00
2018-05-19T01:05:03.819Z,0.00
2018-05-19T01:06:03.801Z,0.00
2018-05-19T01:07:03.817Z,0.00
2018-05-19T01:08:03.831Z,0.00
2018-05-19T01:09:03.844Z,0.00
2018-05-19T01:10:04.082Z,0.00
2018-05-19T01:11:03.882Z,0.00
2018-05-19T01:12:03.892Z,0.00
2018-05-19T01:13:04.028Z,0.00
2018-05-19T01:14:03.925Z,0.00
2018-05-19T01:15:04.057Z,0.00
2018-05-19T01:16:03.995Z,0.00
2018-05-19T01:17:07.661Z,0.00
2018-05-19T01:18:06.363Z,0.00
2018-05-19T01:19:04.127Z,0.00
2018-05-19T01:20:04.011Z,0.00
2018-05-19T01:21:04.146Z,0.00
2018-05-19T01:22:04.060Z,0.00
2018-05-19T01:23:04.068Z,0.00
2018-05-19T01:24:04.144Z,0.00
2018-05-19T01:25:04.105Z,0.00
2018-05-19T01:26:04.162Z,0.00
2018-05-19T01:27:04.131Z,0.00
2018-05-19T01:28:04.322Z,0.00
2018-05-19T01:29:04.163Z,0.00
2018-05-19T01:30:04.311Z,0.00
2018-05-19T01:31:04.296Z,0.00
2018-05-19T01:32:04.226Z,0.00
2018-05-19T01:33:04.352Z,0.00
2018-05-19T01:34:04.255Z,0.00
2018-05-19T01:35:04.271Z,0.00
2018-05-19T01:36:04.288Z,0.00
2018-05-19T01:37:04.408Z,0.00
2018-05-19T01:38:04.316Z,0.00
2018-05-19T01:39:04.324Z,0.00
2018-05-19T01:40:04.347Z,0.00
2018-05-19T01:41:04.356Z,0.00
2018-05-19T01:42:04.481Z,0.00
2018-05-19T01:43:04.519Z,0.00
2018-05-19T01:44:04.531Z,0.00
2018-05-19T01:45:04.422Z,0.00
2018-05-19T01:46:04.451Z,0.00
2018-05-19T01:47:04.555Z,0.00
2018-05-19T01:48:04.466Z,0.00
2018-05-19T01:49:04.504Z,0.00
2018-05-19T01:50:04.628Z,0.00
2018-05-19T01:51:04.522Z,0.00
2018-05-19T01:52:04.761Z,0.00
2018-05-19T01:53:04.679Z,0.00
2018-05-19T01:54:04.567Z,0.00
2018-05-19T01:55:04.591Z,0.00
2018-05-19T01:56:04.600Z,0.00
2018-05-19T01:57:04.843Z,0.00
2018-05-19T01:58:04.649Z,0.00
2018-05-19T01:59:04.662Z,0.00
2018-05-19T02:00:04.660Z,0.00
2018-05-19T02:01:04.676Z,0.00
2018-05-19T02:02:04.926Z,0.00
2018-05-19T02:03:04.839Z,0.00
2018-05-19T02:04:04.729Z,0.00
2018-05-19T02:05:04.750Z,0.00
2018-05-19T02:06:04.889Z,0.00
2018-05-19T02:07:04.879Z,0.00
2018-05-19T02:08:04.800Z,0.00
2018-05-19T02:09:04.938Z,0.00
2018-05-19T02:10:04.822Z,0.00
2018-05-19T02:11:04.843Z,0.00
2018-05-19T02:12:04.953Z,0.00
2018-05-19T02:13:04.884Z,0.00
2018-05-19T02:14:04.902Z,0.00
2018-05-19T02:15:04.896Z,0.00
2018-05-19T02:16:04.923Z,0.00
2018-05-19T02:17:04.950Z,0.00
2018-05-19T02:18:05.062Z,0.00
2018-05-19T02:19:04.973Z,0.00
2018-05-19T02:20:05.112Z,0.00
2018-05-19T02:21:05.126Z,0.00
2018-05-19T02:22:05.016Z,0.00
2018-05-19T02:23:05.141Z,0.00
2018-05-19T02:24:05.047Z,0.00
2018-05-19T02:25:05.071Z,0.00
2018-05-19T02:26:05.088Z,0.00
2018-05-19T02:27:05.225Z,0.00
2018-05-19T02:28:05.385Z,0.00
2018-05-19T02:29:05.135Z,0.00
2018-05-19T02:30:05.143Z,0.00
2018-05-19T02:31:05.171Z,0.00
2018-05-19T02:32:05.179Z,0.00
2018-05-19T02:33:05.199Z,0.00
2018-05-19T02:34:05.438Z,0.00
2018-05-19T02:35:05.223Z,0.00
2018-05-19T02:36:05.245Z,0.00
2018-05-19T02:37:05.383Z,0.00
2018-05-19T02:38:05.275Z,0.00
2018-05-19T02:39:05.300Z,0.00
2018-05-19T02:40:05.403Z,0.00
2018-05-19T02:41:05.445Z,0.00
2018-05-19T02:42:05.324Z,0.00
2018-05-19T02:43:05.341Z,0.00
2018-05-19T02:44:05.371Z,0.00
2018-05-19T02:45:05.534Z,0.00
2018-05-19T02:46:05.403Z,0.00
2018-05-19T02:47:05.414Z,0.00
2018-05-19T02:48:05.433Z,0.00
2018-05-19T02:49:05.454Z,0.00
2018-05-19T02:50:05.694Z,0.00
2018-05-19T02:51:05.487Z,0.00
2018-05-19T02:52:05.487Z,0.00
2018-05-19T02:53:05.518Z,0.00
2018-05-19T02:54:05.532Z,0.00
2018-05-19T02:55:05.867Z,0.00
2018-05-19T02:56:05.564Z,0.00
2018-05-19T02:57:05.580Z,0.00
2018-05-19T02:58:05.591Z,0.00
2018-05-19T02:59:05.613Z,0.00
2018-05-19T03:00:05.717Z,0.00
2018-05-19T03:01:05.757Z,0.00
2018-05-19T03:02:05.773Z,0.00
2018-05-19T03:03:05.674Z,0.00
2018-05-19T03:04:05.803Z,0.00
2018-05-19T03:05:05.805Z,0.00
2018-05-19T03:06:05.700Z,0.00
2018-05-19T03:07:05.726Z,0.00
2018-05-19T03:08:05.751Z,0.00
2018-05-19T03:09:05.759Z,0.00
2018-05-19T03:10:06.001Z,0.00
2018-05-19T03:11:05.802Z,0.00
2018-05-19T03:12:05.805Z,0.00
2018-05-19T03:13:05.827Z,0.00
2018-05-19T03:14:05.842Z,0.00
2018-05-19T03:15:06.077Z,0.00
2018-05-19T03:16:05.878Z,0.00
2018-05-19T03:17:06.106Z,0.00
2018-05-19T03:18:05.912Z,0.00
2018-05-19T03:19:05.928Z,0.00
2018-05-19T03:20:06.157Z,0.00
2018-05-19T03:21:05.952Z,0.00
2018-05-19T03:22:06.089Z,0.00
2018-05-19T03:23:06.102Z,0.00
2018-05-19T03:24:05.994Z,0.00
2018-05-19T03:25:06.113Z,0.00
2018-05-19T03:26:06.033Z,0.00
2018-05-19T03:27:06.035Z,0.00
2018-05-19T03:28:06.180Z,0.00
2018-05-19T03:29:06.075Z,0.00
2018-05-19T03:30:06.312Z,0.00
2018-05-19T03:31:06.115Z,0.00
2018-05-19T03:32:06.253Z,0.00
2018-05-19T03:33:06.259Z,0.00
2018-05-19T03:34:06.146Z,0.00
2018-05-19T03:35:06.440Z,0.00
2018-05-19T03:36:06.212Z,0.00
2018-05-19T03:37:06.206Z,0.00
2018-05-19T03:38:06.337Z,0.00
2018-05-19T03:39:06.220Z,0.00
2018-05-19T03:40:06.240Z,0.00
2018-05-19T03:41:06.416Z,0.00
2018-05-19T03:42:06.403Z,0.00
2018-05-19T03:43:06.287Z,0.00
2018-05-19T03:44:06.312Z,0.00
2018-05-19T03:45:06.318Z,0.00
2018-05-19T03:46:06.565Z,0.00
2018-05-19T03:47:06.356Z,0.00
2018-05-19T03:48:06.494Z,0.00
2018-05-19T03:49:06.387Z,0.00
2018-05-19T03:50:06.527Z,0.00
2018-05-19T03:51:06.519Z,0.00
2018-05-19T03:52:06.427Z,0.00
2018-05-19T03:53:06.450Z,0.00
2018-05-19T03:54:06.472Z,0.00
2018-05-19T03:55:06.483Z,0.00
2018-05-19T03:56:06.649Z,0.00
2018-05-19T03:57:06.512Z,0.00
2018-05-19T03:58:06.535Z,0.00
2018-05-19T03:59:06.664Z,0.00
2018-05-19T04:00:06.555Z,0.00
2018-05-19T04:01:06.852Z,0.00
2018-05-19T04:02:06.592Z,0.00
2018-05-19T04:03:06.601Z,0.00
2018-05-19T04:04:06.623Z,0.00
2018-05-19T04:05:06.629Z,0.00
2018-05-19T04:06:06.752Z,0.00
2018-05-19T04:07:06.672Z,0.00
2018-05-19T04:08:06.678Z,0.00
2018-05-19T04:09:06.706Z,0.00
2018-05-19T04:10:06.722Z,0.00
2018-05-19T04:11:06.872Z,0.00
2018-05-19T04:12:06.870Z,0.00
2018-05-19T04:13:06.885Z,0.00
2018-05-19T04:14:06.805Z,0.00
2018-05-19T04:15:06.913Z,0.00
2018-05-19T04:16:07.032Z,0.00
2018-05-19T04:17:06.945Z,0.00
2018-05-19T04:18:06.848Z,0.00
2018-05-19T04:19:06.856Z,0.00
2018-05-19T04:20:06.878Z,0.00
2018-05-19T04:21:07.033Z,0.00
2018-05-19T04:22:06.905Z,0.00
2018-05-19T04:23:06.918Z,0.00
2018-05-19T04:24:06.935Z,0.00
2018-05-19T04:25:07.071Z,0.00
2018-05-19T04:26:07.085Z,0.00
2018-05-19T04:27:07.204Z,0.00
2018-05-19T04:28:06.995Z,0.00
2018-05-19T04:29:07.006Z,0.00
2018-05-19T04:30:07.149Z,0.00
2018-05-19T04:31:07.162Z,0.00
2018-05-19T04:32:07.283Z,0.00
2018-05-19T04:33:07.076Z,0.00
2018-05-19T04:34:07.088Z,0.00
2018-05-19T04:35:07.106Z,0.00
2018-05-19T04:36:07.119Z,0.00
2018-05-19T04:37:07.205Z,0.00
2018-05-19T04:38:07.422Z,0.00
2018-05-19T04:39:07.174Z,0.00
2018-05-19T04:40:07.169Z,0.00
2018-05-19T04:41:07.199Z,0.00
2018-05-19T04:42:07.210Z,0.00
2018-05-19T04:43:07.232Z,0.00
2018-05-19T04:44:07.389Z,0.00
2018-05-19T04:45:07.263Z,0.00
2018-05-19T04:46:07.278Z,0.00
2018-05-19T04:47:07.291Z,0.00
2018-05-19T04:48:07.308Z,0.00
2018-05-19T04:49:07.419Z,0.00
2018-05-19T04:50:07.324Z,0.00
2018-05-19T04:51:07.477Z,0.00
2018-05-19T04:52:07.359Z,0.00
2018-05-19T04:53:07.391Z,0.00
2018-05-19T04:54:07.541Z,0.00
2018-05-19T04:55:07.536Z,0.00
2018-05-19T04:56:07.422Z,0.00
2018-05-19T04:57:07.458Z,0.00
2018-05-19T04:58:07.466Z,0.00
2018-05-19T04:59:07.471Z,0.00
2018-05-19T05:00:07.595Z,0.00
2018-05-19T05:01:07.629Z,0.00
2018-05-19T05:02:07.652Z,0.00
2018-05-19T05:03:07.537Z,0.00
2018-05-19T05:04:07.682Z,0.00
2018-05-19T05:05:07.792Z,0.00
2018-05-19T05:06:07.595Z,0.00
2018-05-19T05:07:07.610Z,0.00
2018-05-19T05:08:07.624Z,0.00
2018-05-19T05:09:07.757Z,0.00
2018-05-19T05:10:07.800Z,0.00
2018-05-19T05:11:07.659Z,0.00
2018-05-19T05:12:07.801Z,0.00
2018-05-19T05:13:07.820Z,0.00
2018-05-19T05:14:07.719Z,0.00
2018-05-19T05:15:07.885Z,0.00
2018-05-19T05:16:07.865Z,0.00
2018-05-19T05:17:07.743Z,0.00
2018-05-19T05:18:07.894Z,0.00
2018-05-19T05:19:07.792Z,0.00
2018-05-19T05:20:07.910Z,0.00
2018-05-19T05:21:07.827Z,0.00
2018-05-19T05:22:07.955Z,0.00
2018-05-19T05:23:07.972Z,0.00
2018-05-19T05:24:07.876Z,0.00
2018-05-19T05:25:08.032Z,0.00
2018-05-19T05:26:07.894Z,0.00
2018-05-19T05:27:08.047Z,0.00
2018-05-19T05:28:07.922Z,0.00
2018-05-19T05:29:08.066Z,0.00
2018-05-19T05:30:08.052Z,0.00
2018-05-19T05:31:07.965Z,0.00
2018-05-19T05:32:07.982Z,0.00
2018-05-19T05:33:07.997Z,0.00
2018-05-19T05:34:08.012Z,0.00
2018-05-19T05:35:08.256Z,0.00
2018-05-19T05:36:08.174Z,0.00
2018-05-19T05:37:08.190Z,0.00
2018-05-19T05:38:08.203Z,0.00
2018-05-19T05:39:08.099Z,0.00
2018-05-19T05:40:08.232Z,0.00
2018-05-19T05:41:08.352Z,0.00
2018-05-19T05:42:08.138Z,0.00
2018-05-19T05:43:08.170Z,0.00
2018-05-19T05:44:08.169Z,0.00
2018-05-19T05:45:08.310Z,0.00
2018-05-19T05:46:08.429Z,0.00
2018-05-19T05:47:08.222Z,0.00
2018-05-19T05:48:08.222Z,0.00
2018-05-19T05:49:08.247Z,0.00
2018-05-19T05:50:08.329Z,0.00
2018-05-19T05:51:08.407Z,0.00
2018-05-19T05:52:08.402Z,0.00
2018-05-19T05:53:08.298Z,0.00
2018-05-19T05:54:08.448Z,0.00
2018-05-19T05:55:08.471Z,0.00
2018-05-19T05:56:08.480Z,0.00
2018-05-19T05:57:08.597Z,0.00
2018-05-19T05:58:08.509Z,0.00
2018-05-19T05:59:08.531Z,0.00
2018-05-19T06:00:08.412Z,0.00
2018-05-19T06:01:08.558Z,0.00
2018-05-19T06:02:08.601Z,0.00
2018-05-19T06:03:08.590Z,0.00
2018-05-19T06:04:08.476Z,0.00
2018-05-19T06:05:08.617Z,0.00
2018-05-19T06:06:08.634Z,0.00
2018-05-19T06:07:08.527Z,0.00
2018-05-19T06:08:08.685Z,0.00
2018-05-19T06:09:08.561Z,0.00
2018-05-19T06:10:08.578Z,0.00
2018-05-19T06:11:08.710Z,0.00
2018-05-19T06:12:08.710Z,0.00
2018-05-19T06:13:08.660Z,0.00
2018-05-19T06:14:08.629Z,0.00
2018-05-19T06:15:08.643Z,0.00
2018-05-19T06:16:08.659Z,0.00
2018-05-19T06:17:08.820Z,0.00
2018-05-19T06:18:08.843Z,0.00
2018-05-19T06:19:08.700Z,0.00
2018-05-19T06:20:08.725Z,0.00
2018-05-19T06:21:08.864Z,0.00
2018-05-19T06:22:08.745Z,0.00
2018-05-19T06:23:08.869Z,0.00
2018-05-19T06:24:08.908Z,0.00
2018-05-19T06:25:08.815Z,0.00
2018-05-19T06:26:08.829Z,0.00
2018-05-19T06:27:08.953Z,0.00
2018-05-19T06:28:09.122Z,0.00
2018-05-19T06:29:08.984Z,0.00
2018-05-19T06:30:08.870Z,0.00
2018-05-19T06:31:08.887Z,0.00
2018-05-19T06:32:08.911Z,0.00
2018-05-19T06:33:09.245Z,0.00
2018-05-19T06:34:09.061Z,0.00
2018-05-19T06:35:08.951Z,0.00
2018-05-19T06:36:09.092Z,0.00
2018-05-19T06:37:08.977Z,0.00
2018-05-19T06:38:09.101Z,0.00
2018-05-19T06:39:09.004Z,0.00
2018-05-19T06:40:09.032Z,0.00
2018-05-19T06:41:09.168Z,0.00
2018-05-19T06:42:09.248Z,0.00
2018-05-19T06:43:09.201Z,0.00
2018-05-19T06:44:09.315Z,0.00
2018-05-19T06:45:09.233Z,0.00
2018-05-19T06:46:09.119Z,0.00
2018-05-19T06:47:09.259Z,0.00
2018-05-19T06:48:09.190Z,0.00
2018-05-19T06:49:09.391Z,0.00
2018-05-19T06:50:09.308Z,0.00
2018-05-19T06:51:09.192Z,0.00
2018-05-19T06:52:09.210Z,0.00
2018-05-19T06:53:09.233Z,0.00
2018-05-19T06:54:09.344Z,0.00
2018-05-19T06:55:09.255Z,0.00
2018-05-19T06:56:09.278Z,0.00
2018-05-19T06:57:09.331Z,0.00
2018-05-19T06:58:09.427Z,0.00
2018-05-19T06:59:09.318Z,0.00
2018-05-19T07:00:09.657Z,0.00
2018-05-19T07:01:09.474Z,0.00
2018-05-19T07:02:09.488Z,0.00
2018-05-19T07:03:09.389Z,0.00
2018-05-19T07:04:09.517Z,0.00
2018-05-19T07:05:09.509Z,0.00
2018-05-19T07:06:09.420Z,0.00
2018-05-19T07:07:09.440Z,0.00
2018-05-19T07:08:09.534Z,0.00
2018-05-19T07:09:09.593Z,0.00
2018-05-19T07:10:09.760Z,0.00
2018-05-19T07:11:09.627Z,0.00
2018-05-19T07:12:09.512Z,0.00
2018-05-19T07:13:09.537Z,0.00
2018-05-19T07:14:09.537Z,0.00
2018-05-19T07:15:09.728Z,0.00
2018-05-19T07:16:09.674Z,0.00
2018-05-19T07:17:09.716Z,0.00
2018-05-19T07:18:09.604Z,0.00
2018-05-19T07:19:09.617Z,0.00
2018-05-19T07:20:09.626Z,0.00
2018-05-19T07:21:09.880Z,0.00
2018-05-19T07:22:09.792Z,0.00
2018-05-19T07:23:09.686Z,0.00
2018-05-19T07:24:09.823Z,0.00
2018-05-19T07:25:09.840Z,0.00
2018-05-19T07:26:09.833Z,0.00
2018-05-19T07:27:09.869Z,0.00
2018-05-19T07:28:09.758Z,0.00
2018-05-19T07:29:09.899Z,0.00
2018-05-19T07:30:09.913Z,0.00
2018-05-19T07:31:10.032Z,0.00
2018-05-19T07:32:09.944Z,0.00
2018-05-19T07:33:09.826Z,0.00
2018-05-19T07:34:09.841Z,0.00
2018-05-19T07:35:09.869Z,0.00
2018-05-19T07:36:10.137Z,0.00
2018-05-19T07:37:09.897Z,0.00
2018-05-19T07:38:10.040Z,0.00
2018-05-19T07:39:10.053Z,0.00
2018-05-19T07:40:09.943Z,0.00
2018-05-19T07:41:10.184Z,0.00
2018-05-19T07:42:10.099Z,0.00
2018-05-19T07:43:10.116Z,0.00
2018-05-19T07:44:10.129Z,0.00
2018-05-19T07:45:10.025Z,0.00
2018-05-19T07:46:10.262Z,0.00
2018-05-19T07:47:10.047Z,0.00
2018-05-19T07:48:10.053Z,0.00
2018-05-19T07:49:10.205Z,0.00
2018-05-19T07:50:10.085Z,0.00
2018-05-19T07:51:10.111Z,0.00
2018-05-19T07:52:10.350Z,0.00
2018-05-19T07:53:10.141Z,0.00
2018-05-19T07:54:10.155Z,0.00
2018-05-19T07:55:10.299Z,0.00
2018-05-19T07:56:10.189Z,0.00
2018-05-19T07:57:10.298Z,0.00
2018-05-19T07:58:10.232Z,0.00
2018-05-19T07:59:10.234Z,0.00
2018-05-19T08:00:10.371Z,0.00
2018-05-19T08:01:10.389Z,0.00
2018-05-19T08:02:10.378Z,0.00
2018-05-19T08:03:10.284Z,0.00
2018-05-19T08:04:10.323Z,0.00
2018-05-19T08:05:10.448Z,0.00
2018-05-19T08:06:10.337Z,0.00
2018-05-19T08:07:10.579Z,0.00
2018-05-19T08:08:10.366Z,0.00
2018-05-19T08:09:10.508Z,0.00
2018-05-19T08:10:10.524Z,0.00
2018-05-19T08:11:10.418Z,0.00
2018-05-19T08:12:10.655Z,0.00
2018-05-19T08:13:10.445Z,0.00
2018-05-19T08:14:10.460Z,0.00
2018-05-19T08:15:10.604Z,0.00
2018-05-19T08:16:10.487Z,0.00
2018-05-19T08:18:10.509Z,0.00
2018-05-19T08:19:10.530Z,0.00
2018-05-19T08:20:10.673Z,0.00
2018-05-19T08:21:10.569Z,0.00
2018-05-19T08:22:10.678Z,0.00
2018-05-19T08:23:10.721Z,0.00
2018-05-19T08:24:10.736Z,0.00
2018-05-19T08:25:10.751Z,0.00
2018-05-19T08:26:10.763Z,0.00
2018-05-19T08:27:10.757Z,0.00
2018-05-19T08:28:10.670Z,0.00
2018-05-19T08:29:10.688Z,0.00
2018-05-19T08:30:10.694Z,0.00
2018-05-19T08:31:10.840Z,0.00
2018-05-19T08:32:10.828Z,0.00
2018-05-19T08:33:10.733Z,0.00
2018-05-19T08:34:10.888Z,0.00
2018-05-19T08:35:10.887Z,0.00
2018-05-19T08:36:10.793Z,0.00
2018-05-19T08:37:11.030Z,0.00
2018-05-19T08:38:10.822Z,0.00
2018-05-19T08:39:10.960Z,0.00
2018-05-19T08:40:10.977Z,0.00
2018-05-19T08:41:10.970Z,0.00
2018-05-19T08:42:10.942Z,0.00
2018-05-19T08:43:11.022Z,0.00
2018-05-19T08:44:10.921Z,0.00
2018-05-19T08:45:10.917Z,0.00
2018-05-19T08:46:11.069Z,0.00
2018-05-19T08:47:11.069Z,0.00
2018-05-19T08:48:11.096Z,0.00
2018-05-19T08:49:10.986Z,0.00
2018-05-19T08:50:10.998Z,0.00
2018-05-19T08:51:11.141Z,0.00
2018-05-19T08:52:11.155Z,0.00
2018-05-19T08:53:11.144Z,0.00
2018-05-19T08:54:11.189Z,0.00
2018-05-19T08:55:11.205Z,0.00
2018-05-19T08:56:11.091Z,0.00
2018-05-19T08:57:11.110Z,0.00
2018-05-19T08:58:11.224Z,0.00
2018-05-19T08:59:11.263Z,0.00
2018-05-19T09:00:11.153Z,0.00
2018-05-19T09:01:11.156Z,0.00
2018-05-19T09:02:11.308Z,0.00
2018-05-19T09:03:11.301Z,0.00
2018-05-19T09:04:11.203Z,0.00
2018-05-19T09:05:11.227Z,0.00
2018-05-19T09:06:11.373Z,0.00
2018-05-19T09:07:11.255Z,0.00
2018-05-19T09:08:11.273Z,0.00
2018-05-19T09:09:11.395Z,0.00
2018-05-19T09:10:11.301Z,0.00
2018-05-19T09:11:11.443Z,4.00
2018-05-19T09:12:11.327Z,0.00
2018-05-19T09:13:11.472Z,4.00
2018-05-19T09:14:11.589Z,0.00
2018-05-19T09:15:11.412Z,4.00
2018-05-19T09:16:11.519Z,4.00
2018-05-19T09:17:11.412Z,8.00
2018-05-19T09:18:11.420Z,8.00
2018-05-19T09:19:11.614Z,12.00
2018-05-19T09:20:11.449Z,12.00
2018-05-19T09:21:11.461Z,16.00
2018-05-19T09:22:11.609Z,20.00
2018-05-19T09:23:11.513Z,24.00
2018-05-19T09:24:11.612Z,32.00
2018-05-19T09:25:11.653Z,40.00
2018-05-19T09:26:11.669Z,48.00
2018-05-19T09:27:11.556Z,68.00
2018-05-19T09:28:11.565Z,96.00
2018-05-19T09:29:11.689Z,112.00
2018-05-19T09:30:11.731Z,104.00
2018-05-19T09:31:11.744Z,100.00
2018-05-19T09:32:11.760Z,124.00
2018-05-19T09:33:11.774Z,156.00
2018-05-19T09:34:11.889Z,176.00
2018-05-19T09:35:11.677Z,184.00
2018-05-19T09:36:11.818Z,192.00
2018-05-19T09:37:11.834Z,208.00
2018-05-19T09:38:11.729Z,232.00
2018-05-19T09:39:11.966Z,260.00
2018-05-19T09:40:11.756Z,312.00
2018-05-19T09:41:11.761Z,332.00
2018-05-19T09:42:11.790Z,364.00
2018-05-19T09:43:11.925Z,392.00
2018-05-19T09:44:11.915Z,488.00
2018-05-19T09:45:11.956Z,584.00
2018-05-19T09:46:11.972Z,696.00
2018-05-19T09:47:11.929Z,836.00
2018-05-19T09:48:12.002Z,892.00
2018-05-19T09:49:11.989Z,928.00
2018-05-19T09:50:12.035Z,996.00
2018-05-19T09:51:12.047Z,1088.00
2018-05-19T09:52:11.934Z,1200.00
2018-05-19T09:53:12.090Z,1260.00
2018-05-19T09:54:12.093Z,1376.00
2018-05-19T09:55:12.093Z,1448.00
2018-05-19T09:56:11.989Z,1520.00
2018-05-19T09:57:12.010Z,1576.00
2018-05-19T09:58:12.019Z,1620.00
2018-05-19T09:59:12.175Z,1644.00
2018-05-19T10:00:12.286Z,1736.00
2018-05-19T10:01:12.066Z,1828.00
2018-05-19T10:02:12.221Z,1936.00
2018-05-19T10:03:12.100Z,2068.00
2018-05-19T10:04:12.246Z,2180.00
2018-05-19T10:05:12.323Z,2128.00
2018-05-19T10:06:12.171Z,2120.00
2018-05-19T10:07:12.295Z,2232.00
2018-05-19T10:08:12.310Z,2352.00
2018-05-19T10:09:12.323Z,2476.00
2018-05-19T10:10:12.438Z,2640.00
2018-05-19T10:11:12.224Z,2824.00
2018-05-19T10:12:12.233Z,3012.00
2018-05-19T10:13:12.257Z,3248.00
2018-05-19T10:14:12.403Z,3444.00
2018-05-19T10:15:12.383Z,3540.00
2018-05-19T10:16:12.299Z,3772.00
2018-05-19T10:17:12.374Z,4036.00
2018-05-19T10:18:12.339Z,4144.00
2018-05-19T10:19:12.482Z,4504.00
2018-05-19T10:20:12.471Z,4540.00
2018-05-19T10:21:12.511Z,4656.00
2018-05-19T10:22:12.527Z,4804.00
2018-05-19T10:23:12.621Z,4952.00
2018-05-19T10:24:12.560Z,5008.00
2018-05-19T10:25:12.451Z,5108.00
2018-05-19T10:26:12.529Z,5164.00
2018-05-19T10:27:12.608Z,5160.00
2018-05-19T10:28:12.659Z,5184.00
2018-05-19T10:29:12.639Z,5108.00
2018-05-19T10:30:12.530Z,4968.00
2018-05-19T10:31:12.772Z,4944.00
2018-05-19T10:32:12.562Z,4832.00
2018-05-19T10:33:12.704Z,4876.00
2018-05-19T10:34:12.592Z,4696.00
2018-05-19T10:35:12.739Z,4472.00
2018-05-19T10:36:12.852Z,4296.00
2018-05-19T10:37:12.642Z,4176.00
2018-05-19T10:38:12.659Z,4084.00
2018-05-19T10:39:12.803Z,3924.00
2018-05-19T10:40:12.691Z,3764.00
2018-05-19T10:41:12.884Z,3220.00
2018-05-19T10:42:12.718Z,2760.00
2018-05-19T10:43:12.748Z,2528.00
2018-05-19T10:44:12.884Z,2704.00
2018-05-19T10:45:12.780Z,2940.00
2018-05-19T10:46:13.018Z,3188.00
2018-05-19T10:47:12.809Z,3304.00
2018-05-19T10:48:12.950Z,3400.00
2018-05-19T10:49:12.836Z,3424.00
2018-05-19T10:50:12.982Z,3368.00
2018-05-19T10:51:13.050Z,3296.00
2018-05-19T10:52:13.016Z,3064.00
2018-05-19T10:53:13.032Z,3040.00
2018-05-19T10:54:13.048Z,2904.00
2018-05-19T10:55:13.019Z,2872.00
2018-05-19T10:56:13.180Z,2832.00
2018-05-19T10:57:12.971Z,2836.00
2018-05-19T10:58:12.988Z,2956.00
2018-05-19T10:59:12.997Z,3132.00
2018-05-19T11:00:13.025Z,3276.00
2018-05-19T11:01:13.263Z,3512.00
2018-05-19T11:02:13.052Z,3728.00
2018-05-19T11:03:13.197Z,3928.00
2018-05-19T11:04:13.211Z,4548.00
2018-05-19T11:05:13.094Z,4916.00
2018-05-19T11:06:13.221Z,5484.00
2018-05-19T11:07:13.259Z,5552.00
2018-05-19T11:08:13.151Z,8808.00
2018-05-19T11:09:13.291Z,7588.00
2018-05-19T11:10:13.308Z,6040.00
2018-05-19T11:11:13.327Z,5076.00
2018-05-19T11:12:13.439Z,4808.00
2018-05-19T11:13:13.232Z,5076.00
2018-05-19T11:14:13.375Z,5952.00
2018-05-19T11:15:13.254Z,5060.00
2018-05-19T11:16:13.278Z,5588.00
2018-05-19T11:17:13.526Z,6220.00
2018-05-19T11:18:13.316Z,7308.00
2018-05-19T11:19:13.453Z,6424.00
2018-05-19T11:20:13.340Z,5276.00
2018-05-19T11:21:13.486Z,4240.00
2018-05-19T11:22:13.605Z,3640.00
2018-05-19T11:23:13.416Z,3468.00
2018-05-19T11:24:13.538Z,3268.00
2018-05-19T11:25:13.431Z,3344.00
2018-05-19T11:26:13.449Z,4080.00
2018-05-19T11:27:13.590Z,4784.00
2018-05-19T11:28:13.708Z,4508.00
2018-05-19T11:29:13.622Z,4748.00
2018-05-19T11:30:13.639Z,4288.00
2018-05-19T11:31:13.655Z,3624.00
2018-05-19T11:32:13.674Z,2404.00
2018-05-19T11:33:13.652Z,2572.00
2018-05-19T11:34:13.704Z,2988.00
2018-05-19T11:35:13.595Z,3084.00
2018-05-19T11:36:13.736Z,2800.00
2018-05-19T11:37:13.630Z,2468.00
2018-05-19T11:38:13.747Z,2396.00
2018-05-19T11:39:13.785Z,2084.00
2018-05-19T11:40:13.679Z,2088.00
2018-05-19T11:41:13.819Z,2564.00
2018-05-19T11:42:13.705Z,3028.00
2018-05-19T11:43:13.828Z,3200.00
2018-05-19T11:44:13.868Z,2888.00
2018-05-19T11:45:13.758Z,2612.00
2018-05-19T11:46:13.764Z,2340.00
2018-05-19T11:47:13.913Z,2348.00
2018-05-19T11:48:13.980Z,2320.00
2018-05-19T11:49:13.943Z,2316.00
2018-05-19T11:50:13.833Z,2436.00
2018-05-19T11:51:13.973Z,2900.00
2018-05-19T11:52:13.864Z,3680.00
2018-05-19T11:53:14.004Z,3640.00
2018-05-19T11:54:13.939Z,3544.00
2018-05-19T11:55:13.911Z,3276.00
2018-05-19T11:56:14.054Z,3008.00
2018-05-19T11:57:13.941Z,2404.00
2018-05-19T11:58:14.085Z,1956.00
2018-05-19T11:59:14.198Z,2084.00
2018-05-19T12:00:13.979Z,1968.00
2018-05-19T12:01:14.125Z,1648.00
2018-05-19T12:02:14.140Z,1272.00
2018-05-19T12:03:14.030Z,1088.00
2018-05-19T12:04:14.170Z,472.00
2018-05-19T12:05:14.287Z,324.00
2018-05-19T12:06:14.201Z,500.00
2018-05-19T12:07:14.214Z,668.00
2018-05-19T12:08:14.230Z,744.00
2018-05-19T12:09:14.247Z,788.00
2018-05-19T12:10:14.126Z,948.00
2018-05-19T12:11:14.376Z,1088.00
2018-05-19T12:12:14.360Z,800.00
2018-05-19T12:13:14.171Z,628.00
2018-05-19T12:14:14.191Z,456.00
2018-05-19T12:15:14.198Z,596.00
2018-05-19T12:16:14.323Z,696.00
2018-05-19T12:17:14.356Z,716.00
2018-05-19T12:18:14.246Z,728.00
2018-05-19T12:19:14.385Z,688.00
2018-05-19T12:20:14.267Z,680.00
2018-05-19T12:21:14.276Z,712.00
2018-05-19T12:22:14.398Z,808.00
2018-05-19T12:23:14.438Z,1080.00
2018-05-19T12:24:14.322Z,1364.00
2018-05-19T12:25:14.465Z,1640.00
2018-05-19T12:26:14.351Z,2044.00
2018-05-19T12:27:14.591Z,2504.00
2018-05-19T12:28:14.381Z,2984.00
2018-05-19T12:29:14.514Z,3344.00
2018-05-19T12:30:14.395Z,3548.00
2018-05-19T12:31:14.416Z,3684.00
2018-05-19T12:32:14.654Z,3644.00
2018-05-19T12:33:14.438Z,3680.00
2018-05-19T12:34:14.583Z,3792.00
2018-05-19T12:35:14.593Z,3996.00
2018-05-19T12:36:14.483Z,4252.00
2018-05-19T12:37:14.622Z,4476.00
2018-05-19T12:38:14.734Z,4792.00
2018-05-19T12:39:14.527Z,5200.00
2018-05-19T12:40:14.526Z,5512.00
2018-05-19T12:41:14.553Z,5664.00
2018-05-19T12:42:14.687Z,5632.00
2018-05-19T12:43:14.803Z,5512.00
2018-05-19T12:44:14.715Z,5484.00
2018-05-19T12:45:14.734Z,5436.00
2018-05-19T12:46:14.744Z,5292.00
2018-05-19T12:47:14.756Z,5240.00
2018-05-19T12:48:14.747Z,5124.00
2018-05-19T12:49:14.783Z,5004.00
2018-05-19T12:50:14.676Z,4576.00
2018-05-19T12:51:14.810Z,4164.00
2018-05-19T12:52:14.700Z,3588.00
2018-05-19T12:53:14.941Z,3044.00
2018-05-19T12:54:14.722Z,2788.00
2018-05-19T12:55:14.865Z,2856.00
2018-05-19T12:56:14.750Z,3160.00
2018-05-19T12:57:14.770Z,3512.00
2018-05-19T12:58:14.883Z,3980.00
2018-05-19T12:59:14.920Z,4564.00